首页
METAR-TAF:

METAR-TAF

机场 :

雅库茨克, 俄罗斯

纬度: 62-01N, 经度: 129-43E, 海拔: 103米

当前天气观测

该预报发布于31分钟前的15:00 UTC
风速2节,风向东北
温度 17°C
湿度 68%
气压 1003 hPa
能见度10公里或以上
少量云层高于5000英尺, 积雨云.

METAR: UEEE 161500Z 04001MPS 9999 FEW050CB 17/11 Q1003 R23L/09//60 NOSIG RMK QFE744

时间: 00:31 (15:31 UTC)

预报

该预报发布于1小时和31分钟前的14:00 UTC
预报有效从16日的 15点(UTC)到 17日的 21点(UTC)
风速6节,风向东北,有时为19节阵风
能见度10公里或以上
散云层高于3000英尺, 积雨云.
阴天层高于10000英尺

TAF: UEEE 161400Z 1615/1721 04003G10MPS 9999 SCT030CB OVC100

超过4000个机场的气象观测和天气预报(METAR&TAF报告)。

可查询的气象台以黄色和红色小点在地图上表示。

将鼠标移到小点上方,可查看气象台名称。

然后点击查看天气观测和预报。

如需切换地图:点击带黑十字的绿色按钮放大地图;点击带横线的绿色按钮缩小地图;或者点击绿色箭头查看邻近地区的地图。


METAR-TAF: